createdAt,value
2022-11-08T00:01:40.095Z,101126.50
2022-11-08T00:03:41.657Z,101135.38
2022-11-08T00:06:01.831Z,101132.78
2022-11-08T00:08:22.634Z,101127.59
2022-11-08T00:10:42.546Z,101130.34
2022-11-08T00:13:02.312Z,101129.53
2022-11-08T00:15:04.914Z,101136.72
2022-11-08T00:17:06.719Z,101136.75
2022-11-08T00:19:08.184Z,101130.59
2022-11-08T00:21:09.628Z,101138.50
2022-11-08T00:23:11.067Z,101130.50
2022-11-08T00:25:12.569Z,101128.81
2022-11-08T00:27:19.680Z,101138.50
2022-11-08T00:29:21.121Z,101138.50
2022-11-08T00:31:22.625Z,101135.91
2022-11-08T00:33:24.062Z,101134.06
2022-11-08T00:35:25.642Z,101137.63
2022-11-08T00:37:27.168Z,101126.13
2022-11-08T00:39:28.642Z,101120.88
2022-11-08T00:41:30.107Z,101123.47
2022-11-08T00:43:31.601Z,101121.72
2022-11-08T00:45:33.047Z,101118.16
2022-11-08T00:47:34.475Z,101114.59
2022-11-08T00:49:35.967Z,101116.28
2022-11-08T00:51:37.772Z,101114.44
2022-11-08T00:53:40.039Z,101113.41
2022-11-08T00:55:41.507Z,101111.59
2022-11-08T00:57:58.475Z,101109.78
2022-11-08T01:00:00.738Z,101108.88
2022-11-08T01:02:02.278Z,101105.28
2022-11-08T01:04:03.950Z,101100.84
2022-11-08T01:06:09.298Z,101111.41
2022-11-08T01:08:12.118Z,101107.03
2022-11-08T01:10:13.559Z,101107.03
2022-11-08T01:12:14.994Z,101108.66
2022-11-08T01:14:16.557Z,101100.69
2022-11-08T01:16:21.167Z,101103.44
2022-11-08T01:18:22.583Z,101095.50
2022-11-08T01:20:24.054Z,101093.72
2022-11-08T01:22:25.489Z,101100.91
2022-11-08T01:24:26.903Z,101092.97
2022-11-08T01:26:29.380Z,101094.88
2022-11-08T01:28:31.680Z,101094.06
2022-11-08T01:30:37.586Z,101096.75
2022-11-08T01:32:39.030Z,101092.44
2022-11-08T01:34:40.457Z,101097.78
2022-11-08T01:36:41.920Z,101095.13
2022-11-08T01:38:43.987Z,101102.31
2022-11-08T01:40:47.401Z,101103.22
2022-11-08T01:42:48.920Z,101102.41
2022-11-08T01:45:01.600Z,101104.31
2022-11-08T01:47:03.086Z,101100.84
2022-11-08T01:49:43.361Z,101100.13
2022-11-08T01:52:05.871Z,101102.00
2022-11-08T01:54:11.167Z,101105.56
2022-11-08T01:56:14.474Z,101101.19
2022-11-08T01:58:21.347Z,101103.84
2022-11-08T02:00:22.885Z,101103.91
2022-11-08T02:02:24.719Z,101099.56
2022-11-08T02:04:26.264Z,101097.84
2022-11-08T02:06:31.172Z,101105.78
2022-11-08T02:08:36.779Z,101099.66
2022-11-08T02:10:40.657Z,101107.69
2022-11-08T02:12:42.925Z,101104.13
2022-11-08T02:14:44.438Z,101102.38
2022-11-08T02:16:45.907Z,101093.63
2022-11-08T02:18:48.712Z,101096.25
2022-11-08T02:21:16.575Z,101096.31
2022-11-08T02:23:28.979Z,101086.69
2022-11-08T02:25:30.540Z,101096.47
2022-11-08T02:27:32.005Z,101092.09
2022-11-08T02:29:35.661Z,101085.16
2022-11-08T02:31:37.102Z,101085.25
2022-11-08T02:33:39.460Z,101083.53
2022-11-08T02:35:41.458Z,101080.06
2022-11-08T02:37:43.899Z,101087.19
2022-11-08T02:39:46.383Z,101091.63
2022-11-08T02:41:47.909Z,101092.56
2022-11-08T02:43:49.424Z,101089.97
2022-11-08T02:45:52.025Z,101085.56
2022-11-08T02:47:53.460Z,101081.13
2022-11-08T02:49:54.980Z,101078.56
2022-11-08T02:51:56.449Z,101085.66
2022-11-08T02:53:57.908Z,101076.03
2022-11-08T02:55:59.426Z,101084.00
2022-11-08T02:58:01.557Z,101081.47
2022-11-08T03:00:03.520Z,101078.03
2022-11-08T03:02:05.111Z,101084.28
2022-11-08T03:04:06.662Z,101083.41
2022-11-08T03:06:08.233Z,101088.78
2022-11-08T03:08:09.665Z,101087.09
2022-11-08T03:10:11.921Z,101082.72
2022-11-08T03:12:13.395Z,101082.88
2022-11-08T03:14:14.893Z,101072.31
2022-11-08T03:16:16.402Z,101076.75
2022-11-08T03:18:18.227Z,101081.19
2022-11-08T03:20:19.927Z,101079.41
2022-11-08T03:22:21.361Z,101077.72
2022-11-08T03:24:22.788Z,101082.09
2022-11-08T03:26:24.262Z,101077.75
2022-11-08T03:28:26.073Z,101077.81
2022-11-08T03:30:27.719Z,101074.34
2022-11-08T03:32:29.195Z,101068.22
2022-11-08T03:34:30.621Z,101062.06
2022-11-08T03:36:32.125Z,101071.78
2022-11-08T03:38:33.589Z,101070.09
2022-11-08T03:40:35.060Z,101067.53
2022-11-08T03:42:36.461Z,101068.47
2022-11-08T03:44:37.882Z,101075.63
2022-11-08T03:46:39.314Z,101071.31
2022-11-08T03:48:40.732Z,101068.75
2022-11-08T03:50:42.248Z,101069.63
2022-11-08T03:52:48.744Z,101071.44
2022-11-08T03:54:50.177Z,101068.94
2022-11-08T03:56:51.641Z,101077.78
2022-11-08T03:58:53.073Z,101079.59
2022-11-08T04:00:54.691Z,101074.38
2022-11-08T04:03:01.884Z,101074.41
2022-11-08T04:05:03.901Z,101066.59
2022-11-08T04:07:05.342Z,101070.22
2022-11-08T04:09:06.768Z,101065.81
2022-11-08T04:11:26.436Z,101065.91
2022-11-08T04:13:46.302Z,101067.78
2022-11-08T04:15:53.879Z,101068.59
2022-11-08T04:18:33.773Z,101068.72
2022-11-08T04:21:04.839Z,101062.75
2022-11-08T04:23:06.247Z,101067.19
2022-11-08T04:25:08.111Z,101068.94
2022-11-08T04:27:09.752Z,101067.22
2022-11-08T04:29:11.228Z,101068.22
2022-11-08T04:31:20.149Z,101068.16
2022-11-08T04:33:22.332Z,101067.31
2022-11-08T04:35:23.775Z,101063.72
2022-11-08T04:37:25.187Z,101062.75
2022-11-08T04:39:26.628Z,101059.19
2022-11-08T04:41:28.416Z,101053.91
2022-11-08T04:43:31.134Z,101051.28
2022-11-08T04:45:32.556Z,101047.72
2022-11-08T04:47:39.389Z,101047.72
2022-11-08T04:49:42.563Z,101043.31
2022-11-08T04:51:44.009Z,101040.66
2022-11-08T04:53:45.909Z,101039.78
2022-11-08T04:55:47.442Z,101040.69
2022-11-08T04:57:49.635Z,101041.66
2022-11-08T04:59:51.067Z,101039.09
2022-11-08T05:01:52.630Z,101039.13
2022-11-08T05:03:54.850Z,101043.53
2022-11-08T05:05:56.363Z,101036.47
2022-11-08T05:07:57.789Z,101041.69
2022-11-08T05:10:02.376Z,101032.03
2022-11-08T05:12:04.393Z,101030.31
2022-11-08T05:14:05.825Z,101027.66
2022-11-08T05:16:11.497Z,101033.84
2022-11-08T05:18:12.927Z,101032.13
2022-11-08T05:20:32.785Z,101021.56
2022-11-08T05:22:52.512Z,101027.81
2022-11-08T05:24:54.015Z,101019.03
2022-11-08T05:26:55.470Z,101020.88
2022-11-08T05:28:56.990Z,101019.09
2022-11-08T05:30:58.523Z,101017.34
2022-11-08T05:32:59.960Z,101007.75
2022-11-08T05:35:01.431Z,101006.91
2022-11-08T05:37:02.859Z,101004.31
2022-11-08T05:39:04.397Z,101007.97
2022-11-08T05:41:11.933Z,101007.97
2022-11-08T05:43:13.628Z,101005.41
2022-11-08T05:45:15.416Z,101007.19
2022-11-08T05:47:16.862Z,100997.53
2022-11-08T05:49:18.293Z,101001.97
2022-11-08T05:51:20.539Z,101002.06
2022-11-08T05:53:22.073Z,100992.41
2022-11-08T05:55:23.805Z,100995.91
2022-11-08T05:57:25.285Z,100990.63
2022-11-08T05:59:26.745Z,100995.94
2022-11-08T06:01:28.270Z,100990.72
2022-11-08T06:03:30.311Z,100991.59
2022-11-08T06:05:33.055Z,100988.16
2022-11-08T06:07:35.242Z,100991.75
2022-11-08T06:09:36.679Z,100984.00
2022-11-08T06:11:38.304Z,100983.13
2022-11-08T06:13:40.528Z,100981.34
2022-11-08T06:15:41.976Z,100986.63
2022-11-08T06:17:43.500Z,100984.00
2022-11-08T06:19:44.985Z,100983.13
2022-11-08T06:21:46.451Z,100984.03
2022-11-08T06:23:51.264Z,100979.66
2022-11-08T06:25:53.205Z,100981.47
2022-11-08T06:27:54.622Z,100986.81
2022-11-08T06:29:56.438Z,100988.59
2022-11-08T06:31:58.772Z,100984.22
2022-11-08T06:34:00.204Z,100985.13
2022-11-08T06:36:02.154Z,100990.44
2022-11-08T06:38:09.052Z,100983.47
2022-11-08T06:40:11.219Z,100986.19
2022-11-08T06:42:12.712Z,100985.31
2022-11-08T06:44:14.247Z,100985.28
2022-11-08T06:46:15.877Z,100982.69
2022-11-08T06:48:17.316Z,100984.47
2022-11-08T06:50:18.747Z,100980.91
2022-11-08T06:52:20.178Z,100979.22
2022-11-08T06:54:25.802Z,100979.25
2022-11-08T06:56:28.349Z,100982.81
2022-11-08T06:58:30.771Z,100982.84
2022-11-08T07:00:32.444Z,100981.97
2022-11-08T07:02:34.093Z,100978.44
2022-11-08T07:04:35.790Z,100981.13
2022-11-08T07:06:37.342Z,100981.97
2022-11-08T07:08:38.764Z,100979.34
2022-11-08T07:10:40.713Z,100973.19
2022-11-08T07:12:42.159Z,100974.09
2022-11-08T07:14:43.587Z,100966.13
2022-11-08T07:16:45.108Z,100959.00
2022-11-08T07:18:46.783Z,100957.97
2022-11-08T07:20:48.366Z,100961.38
2022-11-08T07:22:49.789Z,100958.59
2022-11-08T07:24:51.289Z,100950.53
2022-11-08T07:26:52.732Z,100950.41
2022-11-08T07:28:54.249Z,100944.16
2022-11-08T07:30:59.922Z,100948.41
2022-11-08T07:33:01.488Z,100942.13
2022-11-08T07:35:03.864Z,100927.91
2022-11-08T07:37:05.312Z,100940.94
2022-11-08T07:39:07.099Z,100933.84
2022-11-08T07:41:09.254Z,100945.13
2022-11-08T07:43:12.562Z,100952.03
2022-11-08T07:45:14.745Z,100951.97
2022-11-08T07:47:16.207Z,100948.31
2022-11-08T07:49:17.643Z,100950.81
2022-11-08T07:51:19.077Z,100948.09
2022-11-08T07:53:21.096Z,100948.81
2022-11-08T07:55:22.725Z,100940.88
2022-11-08T07:57:24.214Z,100933.78
2022-11-08T07:59:25.649Z,100932.84
2022-11-08T08:01:27.140Z,100927.56
2022-11-08T08:03:28.859Z,100917.00
2022-11-08T08:05:34.554Z,100917.88
2022-11-08T08:07:37.019Z,100918.78
2022-11-08T08:09:38.478Z,100918.72
2022-11-08T08:11:39.879Z,100925.75
2022-11-08T08:13:41.623Z,100923.88
2022-11-08T08:15:43.089Z,100923.81
2022-11-08T08:17:44.509Z,100920.19
2022-11-08T08:19:45.934Z,100914.78
2022-11-08T08:21:47.331Z,100915.47
2022-11-08T08:23:48.742Z,100910.09
2022-11-08T08:25:50.135Z,100911.72
2022-11-08T08:27:53.962Z,100927.50
2022-11-08T08:29:56.132Z,100920.28
2022-11-08T08:31:57.669Z,100912.22
2022-11-08T08:33:59.087Z,100906.84
2022-11-08T08:36:01.738Z,100905.88
2022-11-08T08:38:04.476Z,100913.66
2022-11-08T08:40:06.886Z,100905.72
2022-11-08T08:42:08.821Z,100912.66
2022-11-08T08:44:10.761Z,100904.56
2022-11-08T08:46:12.230Z,100901.81
2022-11-08T08:48:13.776Z,100898.13
2022-11-08T08:50:15.221Z,100894.50
2022-11-08T08:52:16.666Z,100887.22
2022-11-08T08:54:18.255Z,100880.91
2022-11-08T08:56:19.656Z,100879.88
2022-11-08T08:58:21.549Z,100873.50
2022-11-08T09:02:45.489Z,100873.13
2022-11-08T09:04:46.902Z,100865.97
2022-11-08T09:06:48.368Z,100870.31
2022-11-08T09:08:50.156Z,100869.31
2022-11-08T09:11:00.089Z,100863.91
2022-11-08T09:13:02.513Z,100857.63
2022-11-08T09:15:05.078Z,100860.16
2022-11-08T09:17:06.496Z,100857.28
2022-11-08T09:19:07.927Z,100858.94
2022-11-08T09:21:10.513Z,100861.44
2022-11-08T09:23:12.195Z,100859.47
2022-11-08T09:25:13.859Z,100860.28
2022-11-08T09:27:15.376Z,100854.00
2022-11-08T09:29:16.834Z,100861.88
2022-11-08T09:31:18.253Z,100855.66
2022-11-08T09:33:20.114Z,100860.00
2022-11-08T09:35:22.559Z,100850.13
2022-11-08T09:37:24.554Z,100848.19
2022-11-08T09:39:26.038Z,100856.72
2022-11-08T09:41:46.665Z,100858.25
2022-11-08T09:44:23.573Z,100839.31
2022-11-08T09:46:33.739Z,100839.16
2022-11-08T09:48:38.692Z,100842.34
2022-11-08T09:50:44.141Z,100829.75
2022-11-08T09:52:55.120Z,100831.28
2022-11-08T09:55:14.181Z,100833.75
2022-11-08T09:57:26.631Z,100832.69
2022-11-08T09:59:46.022Z,100816.53
2022-11-08T10:01:48.908Z,100815.41
2022-11-08T10:03:56.186Z,100813.47
2022-11-08T10:06:42.344Z,100812.38
2022-11-08T10:08:46.402Z,100817.44
2022-11-08T10:11:06.471Z,100803.97
2022-11-08T10:13:17.007Z,100817.06
2022-11-08T10:15:28.331Z,100794.81
2022-11-08T10:18:31.806Z,100802.53
2022-11-08T10:20:42.388Z,100803.25
2022-11-08T10:22:52.622Z,100792.44
2022-11-08T10:24:59.774Z,100793.03
2022-11-08T10:27:02.787Z,100782.13
2022-11-08T10:29:14.033Z,100769.53
2022-11-08T10:31:17.759Z,100782.53
2022-11-08T10:33:24.878Z,100791.19
2022-11-08T10:35:44.401Z,100775.13
2022-11-08T10:37:49.250Z,100776.78
2022-11-08T10:40:04.021Z,100779.16
2022-11-08T10:42:11.336Z,100773.69
2022-11-08T10:44:15.960Z,100776.22
2022-11-08T10:46:42.435Z,100773.47
2022-11-08T10:48:43.861Z,100780.44
2022-11-08T10:50:48.604Z,100781.09
2022-11-08T10:53:05.973Z,100776.56
2022-11-08T10:55:30.909Z,100772.97
2022-11-08T10:57:32.278Z,100778.28
2022-11-08T10:59:34.129Z,100767.66
2022-11-08T11:01:35.617Z,100757.84
2022-11-08T11:03:37.080Z,100754.28
2022-11-08T11:05:42.583Z,100750.75
2022-11-08T11:08:09.913Z,100739.19
2022-11-08T11:10:37.875Z,100735.66
2022-11-08T11:12:39.423Z,100723.97
2022-11-08T11:14:40.878Z,100722.50
2022-11-08T11:16:48.354Z,100720.81
2022-11-08T11:18:52.699Z,100717.38
2022-11-08T11:21:15.135Z,100735.53
2022-11-08T11:23:16.569Z,100725.97
2022-11-08T11:25:21.501Z,100732.22
2022-11-08T11:27:30.979Z,100738.63
2022-11-08T11:29:34.614Z,100720.19
2022-11-08T11:31:38.628Z,100717.59
2022-11-08T11:33:46.374Z,100727.38
2022-11-08T11:36:12.225Z,100727.44
2022-11-08T11:38:39.380Z,100714.19
2022-11-08T11:40:45.619Z,100717.59
2022-11-08T11:42:59.242Z,100716.72
2022-11-08T11:45:14.118Z,100716.56
2022-11-08T11:47:30.968Z,100718.22
2022-11-08T11:49:35.444Z,100723.38
2022-11-08T11:51:36.944Z,100721.38
2022-11-08T11:53:41.734Z,100708.69
2022-11-08T11:56:13.903Z,100708.31
2022-11-08T11:58:39.047Z,100701.09
2022-11-08T12:00:51.025Z,100707.22
2022-11-08T12:03:22.245Z,100708.16
2022-11-08T12:05:51.778Z,100697.66
2022-11-08T12:08:02.085Z,100698.44
2022-11-08T12:10:28.715Z,100706.28
2022-11-08T12:12:57.821Z,100715.81
2022-11-08T12:15:23.895Z,100707.84
2022-11-08T12:17:46.549Z,100707.84
2022-11-08T12:20:22.810Z,100699.00
2022-11-08T12:22:48.089Z,100708.56
2022-11-08T12:25:21.792Z,100709.44
2022-11-08T12:28:01.297Z,100703.16
2022-11-08T12:30:12.347Z,100691.63
2022-11-08T12:32:34.833Z,100684.50
2022-11-08T12:34:52.734Z,100690.59
2022-11-08T12:37:19.010Z,100682.69
2022-11-08T12:39:32.909Z,100680.03
2022-11-08T12:41:46.073Z,100675.50
2022-11-08T12:44:19.146Z,100684.19
2022-11-08T12:46:21.335Z,100674.31
2022-11-08T12:49:01.096Z,100671.66
2022-11-08T12:51:21.012Z,100682.22
2022-11-08T12:53:48.806Z,100677.75
2022-11-08T12:55:51.680Z,100676.72
2022-11-08T12:57:55.594Z,100674.78
2022-11-08T13:00:15.033Z,100668.50
2022-11-08T13:02:26.700Z,100671.94
2022-11-08T13:04:46.702Z,100672.81
2022-11-08T13:07:37.608Z,100669.38
2022-11-08T13:09:46.488Z,100675.47
2022-11-08T13:12:18.867Z,100674.53
2022-11-08T13:14:22.013Z,100674.44
2022-11-08T13:16:39.254Z,100666.47
2022-11-08T13:18:45.154Z,100653.00
2022-11-08T13:20:48.794Z,100655.66
2022-11-08T13:23:00.730Z,100654.88
2022-11-08T13:25:27.978Z,100659.25
2022-11-08T13:27:38.033Z,100658.31
2022-11-08T13:29:39.484Z,100659.09
2022-11-08T13:31:44.984Z,100659.00
2022-11-08T13:34:03.384Z,100651.03
2022-11-08T13:36:35.618Z,100655.31
2022-11-08T13:39:35.841Z,100659.63
2022-11-08T13:42:01.815Z,100660.41
2022-11-08T13:44:41.758Z,100661.34
2022-11-08T13:46:46.603Z,100655.84
2022-11-08T13:49:06.266Z,100650.53
2022-11-08T13:51:35.832Z,100658.50
2022-11-08T13:53:54.328Z,100666.50
2022-11-08T13:56:17.337Z,100659.63
2022-11-08T13:58:50.978Z,100653.34
2022-11-08T14:00:52.436Z,100650.53
2022-11-08T14:02:54.084Z,100654.91
2022-11-08T14:05:15.201Z,100655.06
2022-11-08T14:07:31.591Z,100653.34
2022-11-08T14:09:40.570Z,100655.94
2022-11-08T14:11:52.276Z,100643.66
2022-11-08T14:14:05.813Z,100642.78
2022-11-08T14:16:16.615Z,100643.72
2022-11-08T14:18:28.471Z,100641.06
2022-11-08T14:20:48.778Z,100620.53
2022-11-08T14:22:51.119Z,100616.16
2022-11-08T14:25:06.594Z,100604.66
2022-11-08T14:27:10.990Z,100607.31
2022-11-08T14:29:17.558Z,100603.72
2022-11-08T14:31:28.148Z,100609.13
2022-11-08T14:33:31.990Z,100611.00
2022-11-08T14:35:33.675Z,100617.19
2022-11-08T14:37:35.195Z,100611.69
2022-11-08T14:39:37.159Z,100607.22
2022-11-08T14:41:39.272Z,100616.16
2022-11-08T14:43:47.159Z,100609.13
2022-11-08T14:45:49.372Z,100605.50
2022-11-08T14:48:15.187Z,100608.25
2022-11-08T14:50:24.242Z,100615.47
2022-11-08T14:52:31.669Z,100613.91
2022-11-08T14:54:39.470Z,100621.97
2022-11-08T14:56:43.300Z,100625.59
2022-11-08T14:58:46.155Z,100623.78
2022-11-08T15:00:48.691Z,100631.94
2022-11-08T15:02:54.140Z,100626.63
2022-11-08T15:04:55.728Z,100614.31
2022-11-08T15:06:58.961Z,100602.03
2022-11-08T15:09:01.963Z,100601.97
2022-11-08T15:11:10.830Z,100593.97
2022-11-08T15:13:12.277Z,100590.38
2022-11-08T15:15:40.077Z,100581.69
2022-11-08T15:17:41.588Z,100581.84
2022-11-08T15:19:45.099Z,100587.09
2022-11-08T15:21:49.187Z,100601.34
2022-11-08T15:23:56.006Z,100611.13
2022-11-08T15:25:59.078Z,100610.44
2022-11-08T15:28:19.416Z,100616.78
2022-11-08T15:30:30.028Z,100605.13
2022-11-08T15:32:39.655Z,100612.16
2022-11-08T15:34:41.873Z,100609.50
2022-11-08T15:36:43.514Z,100610.19
2022-11-08T15:38:49.682Z,100603.16
2022-11-08T15:40:53.830Z,100605.03
2022-11-08T15:42:55.582Z,100597.22
2022-11-08T15:45:17.027Z,100603.63
2022-11-08T15:47:44.103Z,100607.44
2022-11-08T15:49:45.560Z,100609.38
2022-11-08T15:51:48.816Z,100613.00
2022-11-08T15:53:50.282Z,100604.22
2022-11-08T15:55:55.050Z,100604.22
2022-11-08T15:57:58.065Z,100594.44
2022-11-08T16:00:00.455Z,100598.03
2022-11-08T16:02:02.520Z,100591.88
2022-11-08T16:04:09.740Z,100598.13
2022-11-08T16:06:12.967Z,100585.75
2022-11-08T16:08:19.798Z,100596.50
2022-11-08T16:10:44.865Z,100597.34
2022-11-08T16:12:47.826Z,100593.75
2022-11-08T16:14:50.977Z,100600.78
2022-11-08T16:16:52.460Z,100593.75
2022-11-08T16:18:53.908Z,100592.97
2022-11-08T16:20:55.341Z,100591.25
2022-11-08T16:22:58.726Z,100589.19
2022-11-08T16:25:00.233Z,100588.50
2022-11-08T16:27:02.052Z,100590.22
2022-11-08T16:29:04.880Z,100596.50
2022-11-08T16:31:10.380Z,100592.88
2022-11-08T16:33:19.692Z,100590.22
2022-11-08T16:35:21.256Z,100590.47
2022-11-08T16:37:22.845Z,100595.88
2022-11-08T16:39:28.245Z,100595.16
2022-11-08T16:41:29.801Z,100602.53
2022-11-08T16:43:31.580Z,100607.06
2022-11-08T16:46:03.251Z,100592.91
2022-11-08T16:47:55.866Z,100603.78
2022-11-08T16:49:57.397Z,100606.44
2022-11-08T16:51:58.850Z,100601.13
2022-11-08T16:54:02.714Z,100607.38
2022-11-08T16:56:04.299Z,100602.84
2022-11-08T16:58:05.730Z,100598.47
2022-11-08T17:00:12.365Z,100598.53
2022-11-08T17:02:30.514Z,100599.56
2022-11-08T17:04:31.943Z,100602.38
2022-11-08T17:06:33.549Z,100596.25
2022-11-08T17:08:35.060Z,100600.00
2022-11-08T17:10:36.615Z,100602.81
2022-11-08T17:12:38.443Z,100607.44
2022-11-08T17:14:39.881Z,100593.34
2022-11-08T17:16:41.655Z,100604.00
2022-11-08T17:18:48.563Z,100605.88
2022-11-08T17:20:53.751Z,100602.50
2022-11-08T17:22:55.357Z,100600.84
2022-11-08T17:24:56.788Z,100596.41
2022-11-08T17:26:58.319Z,100605.38
2022-11-08T17:28:59.819Z,100602.66
2022-11-08T17:31:15.469Z,100602.50
2022-11-08T17:33:17.202Z,100604.53
2022-11-08T17:35:19.093Z,100608.28
2022-11-08T17:37:20.706Z,100606.63
2022-11-08T17:39:22.126Z,100601.31
2022-11-08T17:41:23.570Z,100614.53
2022-11-08T17:43:25.046Z,100615.31
2022-11-08T17:45:26.525Z,100605.53
2022-11-08T17:47:28.742Z,100601.31
2022-11-08T17:49:30.369Z,100601.25
2022-11-08T17:51:31.803Z,100607.50
2022-11-08T17:53:34.199Z,100610.16
2022-11-08T17:55:35.644Z,100612.97
2022-11-08T17:57:37.238Z,100619.06
2022-11-08T17:59:38.963Z,100619.06
2022-11-08T18:01:40.503Z,100624.47
2022-11-08T18:03:42.056Z,100625.31
2022-11-08T18:06:12.254Z,100615.47
2022-11-08T18:08:13.704Z,100619.22
2022-11-08T18:10:16.460Z,100621.16
2022-11-08T18:12:18.024Z,100628.34
2022-11-08T18:14:28.000Z,100629.38
2022-11-08T18:16:30.141Z,100631.22
2022-11-08T18:18:31.552Z,100631.44
2022-11-08T18:20:33.044Z,100625.25
2022-11-08T18:22:34.530Z,100620.88
2022-11-08T18:24:36.094Z,100627.06
2022-11-08T18:26:38.044Z,100623.69
2022-11-08T18:28:41.177Z,100622.91
2022-11-08T18:30:47.653Z,100627.44
2022-11-08T18:32:49.720Z,100620.47
2022-11-08T18:34:51.148Z,100627.50
2022-11-08T18:36:52.662Z,100625.94
2022-11-08T18:38:56.483Z,100628.59
2022-11-08T18:40:57.958Z,100628.72
2022-11-08T18:42:59.545Z,100622.69
2022-11-08T18:45:01.004Z,100627.16
2022-11-08T18:47:02.432Z,100628.94
2022-11-08T18:49:05.168Z,100635.06
2022-11-08T18:51:10.523Z,100634.34
2022-11-08T18:53:11.971Z,100631.75
2022-11-08T18:55:14.618Z,100632.69
2022-11-08T18:57:16.038Z,100625.75
2022-11-08T18:59:17.684Z,100610.91
2022-11-08T19:01:19.306Z,100621.53
2022-11-08T19:03:21.365Z,100624.91
2022-11-08T19:05:23.640Z,100623.25
2022-11-08T19:07:25.280Z,100622.53
2022-11-08T19:09:26.739Z,100627.94
2022-11-08T19:11:30.553Z,100625.31
2022-11-08T19:13:33.712Z,100619.22
2022-11-08T19:15:35.148Z,100617.41
2022-11-08T19:17:36.796Z,100623.81
2022-11-08T19:19:38.257Z,100613.34
2022-11-08T19:21:42.659Z,100619.50
2022-11-08T19:23:45.822Z,100625.66
2022-11-08T19:25:57.428Z,100619.44
2022-11-08T19:27:58.970Z,100611.59
2022-11-08T19:30:00.557Z,100616.06
2022-11-08T19:32:02.065Z,100622.22
2022-11-08T19:34:03.514Z,100622.31
2022-11-08T19:36:12.088Z,100622.22
2022-11-08T19:38:13.623Z,100623.09
2022-11-08T19:40:15.168Z,100617.56
2022-11-08T19:42:16.595Z,100618.34
2022-11-08T19:44:18.473Z,100622.66
2022-11-08T19:46:23.650Z,100620.84
2022-11-08T19:48:25.080Z,100624.44
2022-11-08T19:50:26.561Z,100626.25
2022-11-08T19:52:28.060Z,100635.22
2022-11-08T19:54:29.474Z,100629.97
2022-11-08T19:58:53.523Z,100633.28
2022-11-08T20:00:55.172Z,100632.34
2022-11-08T20:02:56.622Z,100634.09
2022-11-08T20:04:58.060Z,100636.69
2022-11-08T20:06:59.593Z,100633.09
2022-11-08T20:09:01.592Z,100632.22
2022-11-08T20:11:17.372Z,100634.81
2022-11-08T20:13:18.856Z,100638.41
2022-11-08T20:15:20.306Z,100638.41
2022-11-08T20:17:21.725Z,100631.38
2022-11-08T20:19:23.281Z,100633.94
2022-11-08T20:21:24.724Z,100633.25
2022-11-08T20:23:27.110Z,100642.84
2022-11-08T20:25:28.592Z,100645.44
2022-11-08T20:27:30.102Z,100647.09
2022-11-08T20:29:31.690Z,100649.75
2022-11-08T20:31:33.831Z,100653.41
2022-11-08T20:33:37.600Z,100653.41
2022-11-08T20:35:39.847Z,100643.66
2022-11-08T20:37:41.304Z,100650.81
2022-11-08T20:39:42.749Z,100649.88
2022-11-08T20:41:44.261Z,100653.47
2022-11-08T20:43:47.226Z,100648.94
2022-11-08T20:45:48.935Z,100646.38
2022-11-08T20:47:50.360Z,100651.69
2022-11-08T20:49:51.847Z,100640.31
2022-11-08T20:51:53.308Z,100651.00
2022-11-08T20:53:55.979Z,100643.09
2022-11-08T20:55:58.117Z,100644.97
2022-11-08T20:57:59.832Z,100649.63
2022-11-08T21:00:12.757Z,100655.09
2022-11-08T21:02:15.224Z,100658.81
2022-11-08T21:04:16.764Z,100658.81
2022-11-08T21:06:22.097Z,100656.25
2022-11-08T21:10:49.798Z,100650.00
2022-11-08T21:12:51.381Z,100656.97
2022-11-08T21:14:52.887Z,100653.38
2022-11-08T21:19:15.863Z,100660.91
2022-11-08T21:21:19.052Z,100658.31
2022-11-08T21:23:20.468Z,100654.88
2022-11-08T21:25:21.968Z,100654.22
2022-11-08T21:27:28.492Z,100662.38
2022-11-08T21:29:31.120Z,100658.16
2022-11-08T21:31:33.790Z,100655.41
2022-11-08T21:33:35.803Z,100655.41
2022-11-08T21:35:37.707Z,100656.28
2022-11-08T21:37:39.115Z,100658.94
2022-11-08T21:39:40.636Z,100653.63
2022-11-08T21:41:42.081Z,100651.91
2022-11-08T21:43:44.760Z,100660.81
2022-11-08T21:45:46.354Z,100658.06
2022-11-08T21:47:52.667Z,100662.38
2022-11-08T21:49:54.132Z,100652.84
2022-11-08T21:51:55.564Z,100652.00
2022-11-08T21:53:58.373Z,100658.22
2022-11-08T21:55:59.889Z,100664.31
2022-11-08T21:58:01.930Z,100665.09
2022-11-08T22:00:04.856Z,100657.94
2022-11-08T22:02:07.556Z,100659.72
2022-11-08T22:04:09.035Z,100667.69
2022-11-08T22:06:10.542Z,100667.63
2022-11-08T22:08:12.093Z,100670.28
2022-11-08T22:10:13.624Z,100664.19
2022-11-08T22:12:15.157Z,100665.91
2022-11-08T22:14:16.634Z,100659.66
2022-11-08T22:16:18.177Z,100662.44
2022-11-08T22:18:31.204Z,100662.53
2022-11-08T22:21:00.985Z,100658.94
2022-11-08T22:23:07.791Z,100664.03
2022-11-08T22:25:10.380Z,100664.81
2022-11-08T22:27:11.808Z,100669.00
2022-11-08T22:29:14.154Z,100657.31
2022-11-08T22:31:15.648Z,100663.47
2022-11-08T22:33:17.803Z,100658.97
2022-11-08T22:35:19.245Z,100655.38
2022-11-08T22:37:20.713Z,100655.44
2022-11-08T22:39:23.397Z,100653.66
2022-11-08T22:41:25.198Z,100654.50
2022-11-08T22:43:26.629Z,100658.88
2022-11-08T22:45:28.056Z,100653.50
2022-11-08T22:47:29.486Z,100653.38
2022-11-08T22:49:30.987Z,100655.03
2022-11-08T22:51:32.544Z,100650.56
2022-11-08T22:53:34.136Z,100654.94
2022-11-08T22:55:35.907Z,100654.16
2022-11-08T22:57:37.349Z,100654.22
2022-11-08T22:59:38.785Z,100652.50
2022-11-08T23:01:40.251Z,100664.34
2022-11-08T23:03:45.660Z,100660.03
2022-11-08T23:05:55.340Z,100662.63
2022-11-08T23:07:57.001Z,100661.75
2022-11-08T23:09:58.464Z,100666.19
2022-11-08T23:12:18.459Z,100654.66
2022-11-08T23:14:38.206Z,100664.47
2022-11-08T23:16:41.820Z,100659.09
2022-11-08T23:19:03.211Z,100655.59
2022-11-08T23:21:23.202Z,100665.19
2022-11-08T23:24:02.938Z,100670.44
2022-11-08T23:26:04.536Z,100666.06
2022-11-08T23:28:24.625Z,100668.66
2022-11-08T23:30:44.375Z,100667.94
2022-11-08T23:32:48.156Z,100651.13
2022-11-08T23:34:49.576Z,100646.69
2022-11-08T23:36:51.065Z,100648.19
2022-11-08T23:38:52.510Z,100645.41
2022-11-08T23:41:12.257Z,100640.88
2022-11-08T23:43:34.560Z,100648.72
2022-11-08T23:45:36.076Z,100643.31
2022-11-08T23:47:37.557Z,100644.97
2022-11-08T23:49:38.986Z,100644.97
2022-11-08T23:51:40.458Z,100648.50
2022-11-08T23:53:41.943Z,100641.38
2022-11-08T23:55:44.535Z,100642.25
2022-11-08T23:57:47.459Z,100644.03
2022-11-08T23:59:48.934Z,100641.53
